createdAt,value
2018-03-19T00:00:02.002Z,-1.88
2018-03-19T00:00:06.110Z,-1.88
2018-03-19T00:00:10.225Z,-1.88
2018-03-19T00:00:14.446Z,-1.89
2018-03-19T00:00:18.559Z,-1.88
2018-03-19T00:00:22.993Z,-1.88
2018-03-19T00:00:27.299Z,-1.88
2018-03-19T00:00:31.681Z,-1.89
2018-03-19T00:00:35.793Z,-1.88
2018-03-19T00:00:39.796Z,-1.88
2018-03-19T00:00:44.031Z,-1.88
2018-03-19T00:00:48.261Z,-1.89
2018-03-19T00:00:52.593Z,-1.89
2018-03-19T00:00:56.811Z,-1.89
2018-03-19T00:01:00.928Z,-1.88
2018-03-19T00:01:04.936Z,-1.89
2018-03-19T00:01:09.163Z,-1.89
2018-03-19T00:01:13.169Z,-1.89
2018-03-19T00:01:17.292Z,-1.9
2018-03-19T00:01:21.331Z,-1.88
2018-03-19T00:01:25.463Z,-1.89
2018-03-19T00:01:29.577Z,-1.88
2018-03-19T00:01:33.803Z,-1.88
2018-03-19T00:01:38.037Z,-1.89
2018-03-19T00:01:42.146Z,-1.88
2018-03-19T00:01:46.267Z,-1.88
2018-03-19T00:01:50.446Z,-1.88
2018-03-19T00:01:54.562Z,-1.88
2018-03-19T00:01:58.686Z,-1.88
2018-03-19T00:02:02.803Z,-1.88
2018-03-19T00:02:06.922Z,-1.87
2018-03-19T00:02:11.272Z,-1.88
2018-03-19T00:02:15.386Z,-1.88
2018-03-19T00:02:19.504Z,-1.88
2018-03-19T00:02:23.735Z,-1.88
2018-03-19T00:02:27.854Z,-1.87
2018-03-19T00:02:32.074Z,-1.88
2018-03-19T00:02:36.087Z,-1.88
2018-03-19T00:02:40.196Z,-1.88
2018-03-19T00:02:44.524Z,-1.88
2018-03-19T00:02:48.747Z,-1.89
2018-03-19T00:02:52.854Z,-1.88
2018-03-19T00:02:57.080Z,-1.88
2018-03-19T00:03:00.984Z,-1.88
2018-03-19T00:03:05.211Z,-1.89
2018-03-19T00:03:09.122Z,-1.89
2018-03-19T00:03:13.348Z,-1.89
2018-03-19T00:03:17.580Z,-1.9
2018-03-19T00:03:21.798Z,-1.9
2018-03-19T00:03:25.808Z,-1.89
2018-03-19T00:03:30.028Z,-1.89
2018-03-19T00:03:34.364Z,-1.89
2018-03-19T00:03:38.588Z,-1.9
2018-03-19T00:03:42.708Z,-1.9
2018-03-19T00:03:46.827Z,-1.9
2018-03-19T00:03:51.042Z,-1.89
2018-03-19T00:03:55.154Z,-1.9
2018-03-19T00:03:59.176Z,-1.9
2018-03-19T00:04:03.447Z,-1.9
2018-03-19T00:04:07.780Z,-1.9
2018-03-19T00:04:12.020Z,-1.9
2018-03-19T00:04:16.136Z,-1.9
2018-03-19T00:04:20.358Z,-1.9
2018-03-19T00:04:24.587Z,-1.91
2018-03-19T00:04:28.710Z,-1.9
2018-03-19T00:04:32.830Z,-1.91
2018-03-19T00:04:37.056Z,-1.91
2018-03-19T00:04:41.285Z,-1.9
2018-03-19T00:04:45.521Z,-1.91
2018-03-19T00:04:49.657Z,-1.91
2018-03-19T00:04:53.789Z,-1.91
2018-03-19T00:04:57.909Z,-1.91
2018-03-19T00:05:02.432Z,-1.91
2018-03-19T00:05:06.556Z,-1.91
2018-03-19T00:05:10.344Z,-1.92
2018-03-19T00:05:14.348Z,-1.92
2018-03-19T00:05:18.466Z,-1.92
2018-03-19T00:05:22.803Z,-1.91
2018-03-19T00:05:27.147Z,-1.92
2018-03-19T00:05:31.481Z,-1.92
2018-03-19T00:05:35.486Z,-1.92
2018-03-19T00:05:39.716Z,-1.92
2018-03-19T00:05:43.952Z,-1.92
2018-03-19T00:05:48.182Z,-1.92
2018-03-19T00:05:52.296Z,-1.92
2018-03-19T00:05:56.411Z,-1.92
2018-03-19T00:06:00.318Z,-1.92
2018-03-19T00:06:04.482Z,-1.92
2018-03-19T00:06:08.496Z,-1.93
2018-03-19T00:06:12.501Z,-1.92
2018-03-19T00:06:16.723Z,-1.92
2018-03-19T00:06:20.842Z,-1.93
2018-03-19T00:06:24.852Z,-1.92
2018-03-19T00:06:29.183Z,-1.92
2018-03-19T00:06:33.403Z,-1.93
2018-03-19T00:06:37.743Z,-1.93
2018-03-19T00:06:41.859Z,-1.93
2018-03-19T00:06:45.967Z,-1.92
2018-03-19T00:06:49.870Z,-1.92
2018-03-19T00:06:53.768Z,-1.93
2018-03-19T00:06:57.668Z,-1.93
2018-03-19T00:07:01.824Z,-1.93
2018-03-19T00:07:05.945Z,-1.93
2018-03-19T00:07:10.170Z,-1.93
2018-03-19T00:07:14.393Z,-1.92
2018-03-19T00:07:18.720Z,-1.93
2018-03-19T00:07:22.829Z,-1.93
2018-03-19T00:07:27.179Z,-1.93
2018-03-19T00:07:31.299Z,-1.94
2018-03-19T00:07:35.638Z,-1.93
2018-03-19T00:07:39.642Z,-1.94
2018-03-19T00:07:43.971Z,-1.93
2018-03-19T00:07:48.084Z,-1.93
2018-03-19T00:07:52.304Z,-1.94
2018-03-19T00:07:56.531Z,-1.93
2018-03-19T00:08:00.756Z,-1.94
2018-03-19T00:08:04.909Z,-1.92
2018-03-19T00:08:09.041Z,-1.93
2018-03-19T00:08:13.383Z,-1.92
2018-03-19T00:08:17.284Z,-1.93
2018-03-19T00:08:21.510Z,-1.93
2018-03-19T00:08:25.724Z,-1.93
2018-03-19T00:08:29.947Z,-1.93
2018-03-19T00:08:34.162Z,-1.92
2018-03-19T00:08:38.273Z,-1.93
2018-03-19T00:08:42.601Z,-1.92
2018-03-19T00:08:46.500Z,-1.92
2018-03-19T00:08:50.785Z,-1.93
2018-03-19T00:08:55.012Z,-1.92
2018-03-19T00:08:59.262Z,-1.93
2018-03-19T00:09:03.596Z,-1.93
2018-03-19T00:09:07.821Z,-1.92
2018-03-19T00:09:12.157Z,-1.92
2018-03-19T00:09:16.484Z,-1.92
2018-03-19T00:09:20.603Z,-1.93
2018-03-19T00:09:24.990Z,-1.93
2018-03-19T00:09:29.004Z,-1.92
2018-03-19T00:09:33.228Z,-1.92
2018-03-19T00:09:37.551Z,-1.92
2018-03-19T00:09:41.771Z,-1.92
2018-03-19T00:09:46.013Z,-1.92
2018-03-19T00:09:50.340Z,-1.92
2018-03-19T00:09:54.674Z,-1.91
2018-03-19T00:09:58.947Z,-1.92
2018-03-19T00:10:03.064Z,-1.92
2018-03-19T00:10:07.318Z,-1.92
2018-03-19T00:10:11.548Z,-1.92
2018-03-19T00:10:15.672Z,-1.91
2018-03-19T00:10:20.005Z,-1.91
2018-03-19T00:10:23.934Z,-1.92
2018-03-19T00:10:28.156Z,-1.91
2018-03-19T00:10:32.385Z,-1.92
2018-03-19T00:10:36.281Z,-1.92
2018-03-19T00:10:40.502Z,-1.91
2018-03-19T00:10:44.621Z,-1.91
2018-03-19T00:10:48.857Z,-1.92
2018-03-19T00:10:53.076Z,-1.91
2018-03-19T00:10:57.293Z,-1.91
2018-03-19T00:11:01.619Z,-1.9
2018-03-19T00:11:05.678Z,-1.91
2018-03-19T00:11:09.799Z,-1.9
2018-03-19T00:11:13.923Z,-1.9
2018-03-19T00:11:18.033Z,-1.9
2018-03-19T00:11:22.255Z,-1.9
2018-03-19T00:11:26.363Z,-1.9
2018-03-19T00:11:30.481Z,-1.91
2018-03-19T00:11:34.488Z,-1.9
2018-03-19T00:11:38.825Z,-1.89
2018-03-19T00:11:42.945Z,-1.9
2018-03-19T00:11:47.280Z,-1.89
2018-03-19T00:11:51.615Z,-1.89
2018-03-19T00:11:55.628Z,-1.9
2018-03-19T00:11:59.638Z,-1.89
2018-03-19T00:12:04.111Z,-1.89
2018-03-19T00:12:08.225Z,-1.89
2018-03-19T00:12:12.502Z,-1.88
2018-03-19T00:12:16.732Z,-1.88
2018-03-19T00:12:20.846Z,-1.88
2018-03-19T00:12:25.074Z,-1.88
2018-03-19T00:12:29.188Z,-1.88
2018-03-19T00:12:33.410Z,-1.88
2018-03-19T00:12:37.306Z,-1.87
2018-03-19T00:12:41.422Z,-1.88
2018-03-19T00:12:45.320Z,-1.87
2018-03-19T00:12:49.330Z,-1.87
2018-03-19T00:12:53.554Z,-1.87
2018-03-19T00:12:57.453Z,-1.87
2018-03-19T00:13:01.573Z,-1.86
2018-03-19T00:13:05.580Z,-1.87
2018-03-19T00:13:09.694Z,-1.86
2018-03-19T00:13:13.713Z,-1.86
2018-03-19T00:13:17.821Z,-1.86
2018-03-19T00:13:21.939Z,-1.86
2018-03-19T00:13:26.067Z,-1.87
2018-03-19T00:13:30.199Z,-1.84
2018-03-19T00:13:34.318Z,-1.85
2018-03-19T00:13:38.537Z,-1.84
2018-03-19T00:13:42.649Z,-1.85
2018-03-19T00:13:46.985Z,-1.83
2018-03-19T00:13:51.205Z,-1.84
2018-03-19T00:13:55.340Z,-1.84
2018-03-19T00:13:59.346Z,-1.84
2018-03-19T00:14:03.768Z,-1.83
2018-03-19T00:14:07.882Z,-1.83
2018-03-19T00:14:11.787Z,-1.84
2018-03-19T00:14:15.904Z,-1.83
2018-03-19T00:14:20.124Z,-1.82
2018-03-19T00:14:24.320Z,-1.82
2018-03-19T00:14:28.239Z,-1.82
2018-03-19T00:14:32.315Z,-1.82
2018-03-19T00:14:36.425Z,-1.82
2018-03-19T00:14:40.429Z,-1.82
2018-03-19T00:14:44.453Z,-1.82
2018-03-19T00:14:48.675Z,-1.81
2018-03-19T00:14:52.678Z,-1.82
2018-03-19T00:14:56.917Z,-1.81
2018-03-19T00:15:01.144Z,-1.82
2018-03-19T00:15:05.611Z,-1.81
2018-03-19T00:15:09.735Z,-1.81
2018-03-19T00:15:13.966Z,-1.81
2018-03-19T00:15:17.974Z,-1.81
2018-03-19T00:15:22.196Z,-1.81
2018-03-19T00:15:26.527Z,-1.81
2018-03-19T00:15:30.749Z,-1.82
2018-03-19T00:15:35.075Z,-1.8
2018-03-19T00:15:39.301Z,-1.79
2018-03-19T00:15:43.308Z,-1.8
2018-03-19T00:15:47.531Z,-1.8
2018-03-19T00:15:51.644Z,-1.81
2018-03-19T00:15:55.761Z,-1.79
2018-03-19T00:15:59.981Z,-1.8
2018-03-19T00:16:04.102Z,-1.79
2018-03-19T00:16:08.222Z,-1.79
2018-03-19T00:16:12.336Z,-1.79
2018-03-19T00:16:16.454Z,-1.8
2018-03-19T00:16:20.566Z,-1.79
2018-03-19T00:16:24.807Z,-1.78
2018-03-19T00:16:29.133Z,-1.79
2018-03-19T00:16:33.248Z,-1.79
2018-03-19T00:16:37.626Z,-1.79
2018-03-19T00:16:41.964Z,-1.79
2018-03-19T00:16:46.078Z,-1.79
2018-03-19T00:16:50.185Z,-1.79
2018-03-19T00:16:54.296Z,-1.79
2018-03-19T00:16:58.519Z,-1.78
2018-03-19T00:17:02.532Z,-1.79
2018-03-19T00:17:06.646Z,-1.78
2018-03-19T00:17:10.860Z,-1.79
2018-03-19T00:17:14.976Z,-1.79
2018-03-19T00:17:19.193Z,-1.79
2018-03-19T00:17:23.307Z,-1.79
2018-03-19T00:17:27.418Z,-1.79
2018-03-19T00:17:31.656Z,-1.79
2018-03-19T00:17:35.765Z,-1.79
2018-03-19T00:17:39.990Z,-1.8
2018-03-19T00:17:43.993Z,-1.79
2018-03-19T00:17:48.322Z,-1.79
2018-03-19T00:17:52.484Z,-1.8
2018-03-19T00:17:56.596Z,-1.79
2018-03-19T00:18:00.711Z,-1.8
2018-03-19T00:18:04.605Z,-1.79
2018-03-19T00:18:08.513Z,-1.8
2018-03-19T00:18:12.632Z,-1.79
2018-03-19T00:18:16.748Z,-1.8
2018-03-19T00:18:20.971Z,-1.79
2018-03-19T00:18:25.088Z,-1.79
2018-03-19T00:18:29.416Z,-1.79
2018-03-19T00:18:33.636Z,-1.8
2018-03-19T00:18:37.744Z,-1.8
2018-03-19T00:18:41.967Z,-1.8
2018-03-19T00:18:46.187Z,-1.8
2018-03-19T00:18:50.415Z,-1.8
2018-03-19T00:18:54.639Z,-1.79
2018-03-19T00:18:58.655Z,-1.79
2018-03-19T00:19:02.982Z,-1.8
2018-03-19T00:19:07.257Z,-1.79
2018-03-19T00:19:11.478Z,-1.8
2018-03-19T00:19:15.702Z,-1.8
2018-03-19T00:19:19.823Z,-1.8
2018-03-19T00:19:23.938Z,-1.79
2018-03-19T00:19:27.887Z,-1.8
2018-03-19T00:19:32.215Z,-1.79
2018-03-19T00:19:36.335Z,-1.8
2018-03-19T00:19:40.448Z,-1.79
2018-03-19T00:19:44.452Z,-1.79
2018-03-19T00:19:48.673Z,-1.8
2018-03-19T00:19:52.897Z,-1.79
2018-03-19T00:19:57.144Z,-1.8
2018-03-19T00:20:01.150Z,-1.79
2018-03-19T00:20:05.297Z,-1.79
2018-03-19T00:20:09.298Z,-1.78
2018-03-19T00:20:13.622Z,-1.78
2018-03-19T00:20:17.742Z,-1.78
2018-03-19T00:20:21.747Z,-1.78
2018-03-19T00:20:25.753Z,-1.77
2018-03-19T00:20:30.086Z,-1.77
2018-03-19T00:20:34.302Z,-1.76
2018-03-19T00:20:38.419Z,-1.78
2018-03-19T00:20:42.751Z,-1.76
2018-03-19T00:20:46.977Z,-1.76
2018-03-19T00:20:51.099Z,-1.76
2018-03-19T00:20:55.330Z,-1.77
2018-03-19T00:20:59.235Z,-1.76
2018-03-19T00:21:03.132Z,-1.76
2018-03-19T00:21:07.141Z,-1.76
2018-03-19T00:21:11.370Z,-1.76
2018-03-19T00:21:15.480Z,-1.77
2018-03-19T00:21:19.803Z,-1.76
2018-03-19T00:21:23.808Z,-1.76
2018-03-19T00:21:28.031Z,-1.75
2018-03-19T00:21:32.038Z,-1.75
2018-03-19T00:21:36.370Z,-1.75
2018-03-19T00:21:40.598Z,-1.74
2018-03-19T00:21:44.814Z,-1.76
2018-03-19T00:21:48.832Z,-1.75
2018-03-19T00:21:53.173Z,-1.74
2018-03-19T00:21:57.181Z,-1.76
2018-03-19T00:22:01.505Z,-1.74
2018-03-19T00:22:05.613Z,-1.74
2018-03-19T00:22:09.510Z,-1.75
2018-03-19T00:22:13.628Z,-1.75
2018-03-19T00:22:17.852Z,-1.74
2018-03-19T00:22:21.867Z,-1.75
2018-03-19T00:22:25.982Z,-1.74
2018-03-19T00:22:30.097Z,-1.75
2018-03-19T00:22:34.434Z,-1.75
2018-03-19T00:22:38.701Z,-1.75
2018-03-19T00:22:42.826Z,-1.75
2018-03-19T00:22:47.158Z,-1.75
2018-03-19T00:22:51.487Z,-1.75
2018-03-19T00:22:55.822Z,-1.75
2018-03-19T00:23:00.042Z,-1.75
2018-03-19T00:23:04.260Z,-1.75
2018-03-19T00:23:08.379Z,-1.75
2018-03-19T00:23:12.605Z,-1.75
2018-03-19T00:23:16.511Z,-1.75
2018-03-19T00:23:20.511Z,-1.75
2018-03-19T00:23:24.850Z,-1.76
2018-03-19T00:23:29.079Z,-1.75
2018-03-19T00:23:33.299Z,-1.75
2018-03-19T00:23:37.422Z,-1.76
2018-03-19T00:23:41.641Z,-1.76
2018-03-19T00:23:45.756Z,-1.75
2018-03-19T00:23:49.755Z,-1.77
2018-03-19T00:23:54.083Z,-1.76
2018-03-19T00:23:58.197Z,-1.76
2018-03-19T00:24:02.721Z,-1.77
2018-03-19T00:24:06.941Z,-1.77
2018-03-19T00:24:11.163Z,-1.76
2018-03-19T00:24:15.493Z,-1.77
2018-03-19T00:24:19.393Z,-1.77
2018-03-19T00:24:23.528Z,-1.78
2018-03-19T00:24:27.532Z,-1.77
2018-03-19T00:24:31.754Z,-1.77
2018-03-19T00:24:35.979Z,-1.78
2018-03-19T00:24:40.307Z,-1.78
2018-03-19T00:24:44.417Z,-1.79
2018-03-19T00:24:48.424Z,-1.78
2018-03-19T00:24:52.538Z,-1.78
2018-03-19T00:24:56.546Z,-1.79
2018-03-19T00:25:00.604Z,-1.79
2018-03-19T00:25:04.758Z,-1.79
2018-03-19T00:25:08.767Z,-1.79
2018-03-19T00:25:12.787Z,-1.8
2018-03-19T00:25:16.893Z,-1.79
2018-03-19T00:25:21.006Z,-1.81
2018-03-19T00:25:25.119Z,-1.8
2018-03-19T00:25:29.232Z,-1.8
2018-03-19T00:25:33.560Z,-1.81
2018-03-19T00:25:37.679Z,-1.81
2018-03-19T00:25:41.904Z,-1.81
2018-03-19T00:25:45.798Z,-1.81
2018-03-19T00:25:49.699Z,-1.82
2018-03-19T00:25:53.920Z,-1.81
2018-03-19T00:25:58.256Z,-1.81
2018-03-19T00:26:02.568Z,-1.82
2018-03-19T00:26:06.682Z,-1.82
2018-03-19T00:26:10.698Z,-1.81
2018-03-19T00:26:15.084Z,-1.82
2018-03-19T00:26:19.198Z,-1.82
2018-03-19T00:26:23.208Z,-1.83
2018-03-19T00:26:27.550Z,-1.83
2018-03-19T00:26:31.570Z,-1.84
2018-03-19T00:26:35.685Z,-1.83
2018-03-19T00:26:39.802Z,-1.84
2018-03-19T00:26:44.146Z,-1.83
2018-03-19T00:26:48.366Z,-1.84
2018-03-19T00:26:52.588Z,-1.84
2018-03-19T00:26:56.930Z,-1.84
2018-03-19T00:27:01.152Z,-1.85
2018-03-19T00:27:05.425Z,-1.86
2018-03-19T00:27:09.428Z,-1.85
2018-03-19T00:27:13.449Z,-1.85
2018-03-19T00:27:17.569Z,-1.86
2018-03-19T00:27:21.581Z,-1.86
2018-03-19T00:27:25.800Z,-1.87
2018-03-19T00:27:29.915Z,-1.87
2018-03-19T00:27:34.247Z,-1.87
2018-03-19T00:27:38.366Z,-1.88
2018-03-19T00:27:42.580Z,-1.88
2018-03-19T00:27:46.691Z,-1.89
2018-03-19T00:27:51.190Z,-1.9
2018-03-19T00:27:55.547Z,-1.9
2018-03-19T00:27:59.837Z,-1.9
2018-03-19T00:28:04.412Z,-1.9
2018-03-19T00:28:08.590Z,-1.91
2018-03-19T00:28:12.601Z,-1.91
2018-03-19T00:28:16.717Z,-1.92
2018-03-19T00:28:20.950Z,-1.91
2018-03-19T00:28:25.163Z,-1.92
2018-03-19T00:28:29.065Z,-1.92
2018-03-19T00:28:33.297Z,-1.93
2018-03-19T00:28:37.300Z,-1.92
2018-03-19T00:28:41.415Z,-1.93
2018-03-19T00:28:45.426Z,-1.93
2018-03-19T00:28:49.762Z,-1.93
2018-03-19T00:28:53.982Z,-1.94
2018-03-19T00:28:58.204Z,-1.94
2018-03-19T00:29:02.534Z,-1.94
2018-03-19T00:29:06.547Z,-1.94
2018-03-19T00:29:10.876Z,-1.94
2018-03-19T00:29:15.105Z,-1.95
2018-03-19T00:29:19.218Z,-1.94
2018-03-19T00:29:23.538Z,-1.95
2018-03-19T00:29:27.707Z,-1.95
2018-03-19T00:29:31.832Z,-1.95
2018-03-19T00:29:35.940Z,-1.95
2018-03-19T00:29:40.050Z,-1.96
2018-03-19T00:29:44.281Z,-1.96
2018-03-19T00:29:48.509Z,-1.95
2018-03-19T00:29:52.732Z,-1.96
2018-03-19T00:29:56.953Z,-1.97
2018-03-19T00:30:00.956Z,-1.97
2018-03-19T00:30:05.216Z,-1.97
2018-03-19T00:30:09.555Z,-1.98
2018-03-19T00:30:13.778Z,-1.97
2018-03-19T00:30:17.794Z,-1.98
2018-03-19T00:30:21.905Z,-1.99
2018-03-19T00:30:26.034Z,-1.99
2018-03-19T00:30:30.043Z,-1.99
2018-03-19T00:30:34.389Z,-1.99
2018-03-19T00:30:38.722Z,-2
2018-03-19T00:30:43.042Z,-2.01
2018-03-19T00:30:47.051Z,-2
2018-03-19T00:30:51.272Z,-2.01
2018-03-19T00:30:55.607Z,-2.01
2018-03-19T00:30:59.636Z,-2.03
2018-03-19T00:31:03.993Z,-2.01
2018-03-19T00:31:07.782Z,-2.02
2018-03-19T00:31:12.008Z,-2.03
2018-03-19T00:31:15.921Z,-2.03
2018-03-19T00:31:20.041Z,-2.03
2018-03-19T00:31:24.394Z,-2.04
2018-03-19T00:31:28.401Z,-2.04
2018-03-19T00:31:32.525Z,-2.04
2018-03-19T00:31:36.856Z,-2.05
2018-03-19T00:31:40.868Z,-2.04
2018-03-19T00:31:44.978Z,-2.04
2018-03-19T00:31:49.194Z,-2.05
2018-03-19T00:31:53.313Z,-2.05
2018-03-19T00:31:57.443Z,-2.05
2018-03-19T00:32:01.553Z,-2.06
2018-03-19T00:32:05.682Z,-2.06
2018-03-19T00:32:09.898Z,-2.06
2018-03-19T00:32:14.127Z,-2.07
2018-03-19T00:32:18.134Z,-2.06
2018-03-19T00:32:22.250Z,-2.07
2018-03-19T00:32:26.374Z,-2.07
2018-03-19T00:32:30.487Z,-2.07
2018-03-19T00:32:34.500Z,-2.06
2018-03-19T00:32:38.722Z,-2.07
2018-03-19T00:32:43.063Z,-2.08
2018-03-19T00:32:47.071Z,-2.08
2018-03-19T00:32:51.181Z,-2.07
2018-03-19T00:32:55.518Z,-2.07
2018-03-19T00:32:59.744Z,-2.08
2018-03-19T00:33:04.011Z,-2.08
2018-03-19T00:33:08.224Z,-2.09
2018-03-19T00:33:12.451Z,-2.08
2018-03-19T00:33:16.676Z,-2.09
2018-03-19T00:33:20.911Z,-2.09
2018-03-19T00:33:24.919Z,-2.09
2018-03-19T00:33:29.138Z,-2.09
2018-03-19T00:33:33.249Z,-2.1
2018-03-19T00:33:37.364Z,-2.1
2018-03-19T00:33:41.592Z,-2.1
2018-03-19T00:33:45.704Z,-2.1
2018-03-19T00:33:49.925Z,-2.11
2018-03-19T00:33:54.145Z,-2.09
2018-03-19T00:33:58.149Z,-2.11
2018-03-19T00:34:02.378Z,-2.1
2018-03-19T00:34:06.600Z,-2.12
2018-03-19T00:34:10.825Z,-2.12
2018-03-19T00:34:14.941Z,-2.12
2018-03-19T00:34:19.164Z,-2.12
2018-03-19T00:34:23.399Z,-2.12
2018-03-19T00:34:27.192Z,-2.11
2018-03-19T00:34:31.203Z,-2.12
2018-03-19T00:34:35.330Z,-2.12
2018-03-19T00:34:39.441Z,-2.12
2018-03-19T00:34:43.551Z,-2.13
2018-03-19T00:34:47.669Z,-2.13
2018-03-19T00:34:51.901Z,-2.12
2018-03-19T00:34:56.017Z,-2.13
2018-03-19T00:35:00.236Z,-2.12
2018-03-19T00:35:04.280Z,-2.13
2018-03-19T00:35:08.182Z,-2.13
2018-03-19T00:35:12.450Z,-2.12
2018-03-19T00:35:16.518Z,-2.12
2018-03-19T00:35:20.760Z,-2.12
2018-03-19T00:35:24.763Z,-2.12
2018-03-19T00:35:29.097Z,-2.12
2018-03-19T00:35:33.314Z,-2.13
2018-03-19T00:35:37.646Z,-2.13
2018-03-19T00:35:41.977Z,-2.12
2018-03-19T00:35:46.200Z,-2.12
2018-03-19T00:35:50.205Z,-2.12
2018-03-19T00:35:54.217Z,-2.13
2018-03-19T00:35:58.441Z,-2.12
2018-03-19T00:36:02.875Z,-2.12
2018-03-19T00:36:07.148Z,-2.12
2018-03-19T00:36:11.262Z,-2.12
2018-03-19T00:36:15.482Z,-2.1
2018-03-19T00:36:19.598Z,-2.12
2018-03-19T00:36:23.715Z,-2.11
2018-03-19T00:36:27.834Z,-2.11
2018-03-19T00:36:32.056Z,-2.12
2018-03-19T00:36:36.172Z,-2.11
2018-03-19T00:36:40.177Z,-2.1
2018-03-19T00:36:44.399Z,-2.1
2018-03-19T00:36:48.627Z,-2.11
2018-03-19T00:36:52.531Z,-2.1
2018-03-19T00:36:56.760Z,-2.09
2018-03-19T00:37:00.981Z,-2.1
2018-03-19T00:37:05.301Z,-2.1
2018-03-19T00:37:09.422Z,-2.1
2018-03-19T00:37:13.640Z,-2.1
2018-03-19T00:37:17.643Z,-2.09
2018-03-19T00:37:21.754Z,-2.09
2018-03-19T00:37:25.979Z,-2.09
2018-03-19T00:37:30.305Z,-2.09
2018-03-19T00:37:34.417Z,-2.09
2018-03-19T00:37:38.435Z,-2.08
2018-03-19T00:37:42.329Z,-2.09
2018-03-19T00:37:46.446Z,-2.08
2018-03-19T00:37:50.570Z,-2.09
2018-03-19T00:37:54.683Z,-2.08
2018-03-19T00:37:58.681Z,-2.08
2018-03-19T00:38:02.585Z,-2.08
2018-03-19T00:38:06.824Z,-2.08
2018-03-19T00:38:10.939Z,-2.07
2018-03-19T00:38:15.157Z,-2.07
2018-03-19T00:38:19.396Z,-2.07
2018-03-19T00:38:23.509Z,-2.07
2018-03-19T00:38:27.624Z,-2.06
2018-03-19T00:38:31.845Z,-2.06
2018-03-19T00:38:36.183Z,-2.06
2018-03-19T00:38:40.538Z,-2.06
2018-03-19T00:38:44.867Z,-2.06
2018-03-19T00:38:48.983Z,-2.06
2018-03-19T00:38:53.218Z,-2.05
2018-03-19T00:38:57.564Z,-2.05
2018-03-19T00:39:01.897Z,-2.05
2018-03-19T00:39:06.167Z,-2.05
2018-03-19T00:39:10.392Z,-2.05
2018-03-19T00:39:14.722Z,-2.05
2018-03-19T00:39:18.950Z,-2.04
2018-03-19T00:39:23.069Z,-2.04
2018-03-19T00:39:26.970Z,-2.04
2018-03-19T00:39:31.091Z,-2.04
2018-03-19T00:39:35.205Z,-2.02
2018-03-19T00:39:39.322Z,-2.03
2018-03-19T00:39:43.430Z,-2.03
2018-03-19T00:39:47.443Z,-2.03
2018-03-19T00:39:51.550Z,-2.02
2018-03-19T00:39:55.667Z,-2.02
2018-03-19T00:39:59.778Z,-2.03
2018-03-19T00:40:04.010Z,-2.02
2018-03-19T00:40:08.358Z,-2.01
2018-03-19T00:40:12.477Z,-2.01
2018-03-19T00:40:16.709Z,-2.03
2018-03-19T00:40:20.930Z,-2.02
2018-03-19T00:40:24.833Z,-2.01
2018-03-19T00:40:29.101Z,-2.01
2018-03-19T00:40:33.322Z,-2.02
2018-03-19T00:40:37.557Z,-2.02
2018-03-19T00:40:41.668Z,-2.01
2018-03-19T00:40:46.006Z,-2.02
2018-03-19T00:40:50.233Z,-2.01
2018-03-19T00:40:54.472Z,-2.01
2018-03-19T00:40:58.692Z,-2.03
2018-03-19T00:41:02.801Z,-2.03
2018-03-19T00:41:06.912Z,-2.02
2018-03-19T00:41:11.040Z,-2.01
2018-03-19T00:41:15.262Z,-2.01
2018-03-19T00:41:19.484Z,-2.02
2018-03-19T00:41:23.709Z,-2.02
2018-03-19T00:41:27.610Z,-2.02
2018-03-19T00:41:31.723Z,-2.03
2018-03-19T00:41:36.042Z,-2.02
2018-03-19T00:41:40.149Z,-2.02
2018-03-19T00:41:44.167Z,-2.02
2018-03-19T00:41:48.389Z,-2.03
2018-03-19T00:41:52.665Z,-2.03
2018-03-19T00:41:56.993Z,-2.03
2018-03-19T00:42:01.119Z,-2.03
2018-03-19T00:42:05.018Z,-2.03
2018-03-19T00:42:09.133Z,-2.03
2018-03-19T00:42:13.242Z,-2.03
2018-03-19T00:42:17.463Z,-2.04
2018-03-19T00:42:21.575Z,-2.04
2018-03-19T00:42:25.746Z,-2.04
2018-03-19T00:42:30.081Z,-2.04
2018-03-19T00:42:33.976Z,-2.03
2018-03-19T00:42:38.196Z,-2.04
2018-03-19T00:42:42.312Z,-2.04
2018-03-19T00:42:46.539Z,-2.04
2018-03-19T00:42:50.665Z,-2.04
2018-03-19T00:42:54.779Z,-2.04
2018-03-19T00:42:59.107Z,-2.05
2018-03-19T00:43:03.325Z,-2.06
2018-03-19T00:43:07.437Z,-2.05
2018-03-19T00:43:11.551Z,-2.05
2018-03-19T00:43:15.771Z,-2.06
2018-03-19T00:43:19.994Z,-2.06
2018-03-19T00:43:24.219Z,-2.06
2018-03-19T00:43:28.326Z,-2.06
2018-03-19T00:43:32.440Z,-2.06
2018-03-19T00:43:36.449Z,-2.06
2018-03-19T00:43:40.782Z,-2.07
2018-03-19T00:43:44.890Z,-2.07
2018-03-19T00:43:49.010Z,-2.06
2018-03-19T00:43:53.220Z,-2.07
2018-03-19T00:43:57.337Z,-2.09
2018-03-19T00:44:01.567Z,-2.07
2018-03-19T00:44:05.789Z,-2.08
2018-03-19T00:44:09.798Z,-2.08
2018-03-19T00:44:13.809Z,-2.09
2018-03-19T00:44:18.031Z,-2.09
2018-03-19T00:44:22.117Z,-2.09
2018-03-19T00:44:26.232Z,-2.09
2018-03-19T00:44:30.353Z,-2.1
2018-03-19T00:44:34.581Z,-2.09
2018-03-19T00:44:38.812Z,-2.1
2018-03-19T00:44:42.928Z,-2.09
2018-03-19T00:44:47.264Z,-2.1
2018-03-19T00:44:51.385Z,-2.11
2018-03-19T00:44:55.501Z,-2.11
2018-03-19T00:44:59.717Z,-2.11
2018-03-19T00:45:04.141Z,-2.11
2018-03-19T00:45:08.248Z,-2.12
2018-03-19T00:45:12.588Z,-2.13
2018-03-19T00:45:16.922Z,-2.12
2018-03-19T00:45:21.028Z,-2.13
2018-03-19T00:45:25.141Z,-2.14
2018-03-19T00:45:28.929Z,-2.14
2018-03-19T00:45:33.036Z,-2.14
2018-03-19T00:45:37.267Z,-2.14
2018-03-19T00:45:41.645Z,-2.14
2018-03-19T00:45:45.988Z,-2.15
2018-03-19T00:45:50.208Z,-2.15
2018-03-19T00:45:54.429Z,-2.16
2018-03-19T00:45:58.545Z,-2.17
2018-03-19T00:46:02.699Z,-2.15
2018-03-19T00:46:06.602Z,-2.16
2018-03-19T00:46:10.724Z,-2.17
2018-03-19T00:46:14.954Z,-2.17
2018-03-19T00:46:19.116Z,-2.17
2018-03-19T00:46:23.246Z,-2.18
2018-03-19T00:46:27.578Z,-2.18
2018-03-19T00:46:31.582Z,-2.18
2018-03-19T00:46:35.697Z,-2.18
2018-03-19T00:46:40.027Z,-2.19
2018-03-19T00:46:44.249Z,-2.2
2018-03-19T00:46:48.150Z,-2.2
2018-03-19T00:46:52.266Z,-2.2
2018-03-19T00:46:56.372Z,-2.2
2018-03-19T00:47:00.715Z,-2.2
2018-03-19T00:47:04.876Z,-2.21
2018-03-19T00:47:08.997Z,-2.21
2018-03-19T00:47:13.218Z,-2.21
2018-03-19T00:47:17.117Z,-2.22
2018-03-19T00:47:21.242Z,-2.23
2018-03-19T00:47:25.574Z,-2.24
2018-03-19T00:47:29.696Z,-2.23
2018-03-19T00:47:33.809Z,-2.24
2018-03-19T00:47:37.926Z,-2.25
2018-03-19T00:47:41.935Z,-2.25
2018-03-19T00:47:46.044Z,-2.26
2018-03-19T00:47:50.172Z,-2.25
2018-03-19T00:47:54.392Z,-2.27
2018-03-19T00:47:58.729Z,-2.28
2018-03-19T00:48:03.140Z,-2.27
2018-03-19T00:48:07.375Z,-2.28
2018-03-19T00:48:11.379Z,-2.28
2018-03-19T00:48:15.716Z,-2.28
2018-03-19T00:48:19.832Z,-2.29
2018-03-19T00:48:24.120Z,-2.29
2018-03-19T00:48:28.120Z,-2.3
2018-03-19T00:48:32.350Z,-2.3
2018-03-19T00:48:36.674Z,-2.3
2018-03-19T00:48:40.688Z,-2.31
2018-03-19T00:48:44.920Z,-2.32
2018-03-19T00:48:48.940Z,-2.31
2018-03-19T00:48:53.268Z,-2.33
2018-03-19T00:48:57.601Z,-2.32
2018-03-19T00:49:01.971Z,-2.33
2018-03-19T00:49:06.142Z,-2.33
2018-03-19T00:49:10.041Z,-2.34
2018-03-19T00:49:14.155Z,-2.34
2018-03-19T00:49:18.378Z,-2.34
2018-03-19T00:49:22.601Z,-2.34
2018-03-19T00:49:26.836Z,-2.34
2018-03-19T00:49:30.948Z,-2.34
2018-03-19T00:49:35.065Z,-2.35
2018-03-19T00:49:39.285Z,-2.35
2018-03-19T00:49:43.510Z,-2.34
2018-03-19T00:49:47.737Z,-2.35
2018-03-19T00:49:51.741Z,-2.36
2018-03-19T00:49:55.747Z,-2.36
2018-03-19T00:49:59.868Z,-2.36
2018-03-19T00:50:04.038Z,-2.35
2018-03-19T00:50:08.258Z,-2.37
2018-03-19T00:50:12.477Z,-2.36
2018-03-19T00:50:16.594Z,-2.37
2018-03-19T00:50:20.818Z,-2.37
2018-03-19T00:50:24.944Z,-2.37
2018-03-19T00:50:29.058Z,-2.38
2018-03-19T00:50:33.335Z,-2.38
2018-03-19T00:50:37.671Z,-2.39
2018-03-19T00:50:41.893Z,-2.38
2018-03-19T00:50:46.007Z,-2.38
2018-03-19T00:50:50.333Z,-2.39
2018-03-19T00:50:54.555Z,-2.4
2018-03-19T00:50:58.777Z,-2.4
2018-03-19T00:51:03.273Z,-2.4
2018-03-19T00:51:07.493Z,-2.39
2018-03-19T00:51:11.609Z,-2.41
2018-03-19T00:51:15.935Z,-2.41
2018-03-19T00:51:20.153Z,-2.41
2018-03-19T00:51:24.483Z,-2.42
2018-03-19T00:51:28.819Z,-2.41
2018-03-19T00:51:33.039Z,-2.42
2018-03-19T00:51:37.258Z,-2.42
2018-03-19T00:51:41.481Z,-2.43
2018-03-19T00:51:45.708Z,-2.43
2018-03-19T00:51:49.716Z,-2.44
2018-03-19T00:51:53.999Z,-2.44
2018-03-19T00:51:58.224Z,-2.44
2018-03-19T00:52:02.357Z,-2.44
2018-03-19T00:52:06.581Z,-2.44
2018-03-19T00:52:10.588Z,-2.45
2018-03-19T00:52:14.915Z,-2.46
2018-03-19T00:52:19.272Z,-2.46
2018-03-19T00:52:23.503Z,-2.46
2018-03-19T00:52:27.741Z,-2.47
2018-03-19T00:52:31.635Z,-2.47
2018-03-19T00:52:35.981Z,-2.48
2018-03-19T00:52:40.207Z,-2.49
2018-03-19T00:52:44.433Z,-2.48
2018-03-19T00:52:48.663Z,-2.48
2018-03-19T00:52:52.771Z,-2.49
2018-03-19T00:52:56.991Z,-2.49
2018-03-19T00:53:01.106Z,-2.51
2018-03-19T00:53:05.326Z,-2.52
2018-03-19T00:53:09.431Z,-2.51
2018-03-19T00:53:13.543Z,-2.52
2018-03-19T00:53:17.551Z,-2.53
2018-03-19T00:53:21.783Z,-2.52
2018-03-19T00:53:25.898Z,-2.53
2018-03-19T00:53:30.228Z,-2.53
2018-03-19T00:53:34.446Z,-2.54
2018-03-19T00:53:38.669Z,-2.53
2018-03-19T00:53:42.887Z,-2.54
2018-03-19T00:53:47.113Z,-2.54
2018-03-19T00:53:51.326Z,-2.54